Time;durP1;ratioP1;P1;durP2;ratioP2;P2;SDS_P1;SDS_P2;PMS_P1;PMS_P2;Temp;Humidity;BMP_temperature;BMP_pressure;BME280_temperature;BME280_humidity;BME280_pressure;Samples;Min_cycle;Max_cycle;Signal;HPM_P1;HPM_P2
2022/02/02 00:02:23;;;;;;;23.23;5.20;;;7.30;99.90;;;;;;6194565;22;20020;-82
2022/02/02 00:04:53;;;;;;;22.92;4.88;;;7.30;99.90;;;;;;6221628;22;20024;-81
2022/02/02 00:10:00;;;;;;;29.25;6.28;;;7.30;99.90;;;;;;6244066;22;20412;-81
2022/02/02 00:12:45;;;;;;;27.08;5.43;;;7.30;99.90;;;;;;6246807;22;20461;-81
2022/02/02 00:18:46;;;;;;;20.70;5.03;;;7.20;99.90;;;;;;6269128;22;20027;-82
2022/02/02 00:20:52;;;;;;;23.13;4.68;;;7.30;99.90;;;;;;6247429;22;20015;-82
2022/02/02 00:23:22;;;;;;;20.85;4.60;;;7.30;99.90;;;;;;6221211;22;20518;-82
2022/02/02 00:28:40;;;;;;;18.38;3.72;;;7.30;99.90;;;;;;6268917;22;20060;-82
2022/02/02 00:31:11;;;;;;;18.17;3.88;;;7.30;99.90;;;;;;6244858;22;20051;-81
2022/02/02 00:33:43;;;;;;;24.08;3.85;;;7.30;99.90;;;;;;6220621;22;20620;-80
2022/02/02 00:36:14;;;;;;;20.23;3.97;;;7.30;99.90;;;;;;6221109;22;20027;-82
2022/02/02 00:38:40;;;;;;;15.23;3.53;;;7.20;99.90;;;;;;6195934;22;20027;-78
2022/02/02 00:41:06;;;;;;;18.42;4.43;;;7.20;99.90;;;;;;6218704;22;20012;-80
2022/02/02 00:43:32;;;;;;;16.75;3.13;;;7.30;99.90;;;;;;6244036;22;20066;-79
2022/02/02 00:45:58;;;;;;;18.25;3.83;;;7.20;99.90;;;;;;6244412;22;20081;-82
2022/02/02 00:48:27;;;;;;;15.07;3.33;;;7.30;99.90;;;;;;6269058;22;20082;-83
2022/02/02 00:50:53;;;;;;;20.60;4.35;;;7.20;99.90;;;;;;6244317;22;20020;-82
2022/02/02 00:53:20;;;;;;;20.17;4.35;;;7.20;99.90;;;;;;6243640;22;20020;-81
2022/02/02 00:55:46;;;;;;;20.38;3.97;;;7.20;99.90;;;;;;6269719;22;20069;-80
2022/02/02 00:58:12;;;;;;;20.65;4.55;;;7.20;99.90;;;;;;6216999;22;20043;-80
2022/02/02 01:00:39;;;;;;;27.50;5.22;;;7.20;99.90;;;;;;6268379;22;20073;-82
2022/02/02 01:03:05;;;;;;;25.67;4.78;;;7.20;99.90;;;;;;6269033;22;20019;-81
2022/02/02 01:05:31;;;;;;;21.67;4.70;;;7.20;99.90;;;;;;6217978;22;20024;-81
2022/02/02 01:11:14;;;;;;;23.35;5.50;;;7.20;99.90;;;;;;6121914;23;20069;-81
2022/02/02 01:21:44;;;;;;;21.35;4.90;;;7.30;99.90;;;;;;6244770;22;20118;-82
2022/02/02 01:29:39;;;;;;;24.80;4.80;;;7.30;99.90;;;;;;6249266;22;20023;-82
2022/02/02 01:32:05;;;;;;;18.63;3.83;;;7.40;99.90;;;;;;6195159;22;20423;-82
2022/02/02 01:34:31;;;;;;;20.60;3.90;;;7.40;99.90;;;;;;6219713;22;20028;-82
2022/02/02 01:36:56;;;;;;;19.25;4.00;;;7.40;99.90;;;;;;6218908;22;20422;-80
2022/02/02 01:39:26;;;;;;;18.65;4.53;;;7.40;99.90;;;;;;6219225;22;20061;-82
2022/02/02 01:41:53;;;;;;;19.60;3.42;;;7.40;99.90;;;;;;6220561;22;20073;-83
2022/02/02 01:44:29;;;;;;;23.73;5.00;;;7.40;99.90;;;;;;6270319;22;20145;-81
2022/02/02 01:46:56;;;;;;;21.25;4.00;;;7.50;99.90;;;;;;6222136;22;20106;-82
2022/02/02 01:50:14;;;;;;;18.13;4.13;;;7.50;99.90;;;;;;6219995;22;20020;-81
2022/02/02 01:55:02;;;;;;;22.40;4.60;;;7.50;99.90;;;;;;6270616;22;20050;-81
2022/02/02 02:00:07;;;;;;;20.88;4.40;;;7.40;99.90;;;;;;6246838;22;20024;-81
2022/02/02 02:02:36;;;;;;;29.85;5.35;;;7.30;99.90;;;;;;6244585;22;20453;-81
2022/02/02 02:05:04;;;;;;;21.98;4.85;;;7.20;99.90;;;;;;6245949;22;20445;-80
2022/02/02 02:07:30;;;;;;;23.63;4.90;;;7.20;99.90;;;;;;6271377;22;20455;-81
2022/02/02 02:09:58;;;;;;;23.02;4.97;;;7.00;99.90;;;;;;6220622;22;20019;-80
2022/02/02 02:12:24;;;;;;;33.70;6.55;;;7.00;99.90;;;;;;6245508;22;20047;-80
2022/02/02 02:14:55;;;;;;;23.42;5.10;;;6.90;99.90;;;;;;6246290;22;20020;-82
2022/02/02 02:17:23;;;;;;;24.45;4.95;;;6.90;99.90;;;;;;6245896;22;20020;-82
2022/02/02 02:19:51;;;;;;;27.45;4.97;;;6.90;99.90;;;;;;6196528;22;20069;-80
2022/02/02 02:22:21;;;;;;;19.70;4.60;;;6.90;99.90;;;;;;6269705;22;20453;-82
2022/02/02 02:24:47;;;;;;;19.90;4.50;;;6.90;99.90;;;;;;6219941;22;20020;-81
2022/02/02 02:27:19;;;;;;;22.35;5.28;;;6.90;99.90;;;;;;6244814;22;20034;-79
2022/02/02 02:56:43;;;;;;;30.85;6.13;;;6.80;99.90;;;;;;6226529;22;20502;-81
2022/02/02 02:59:15;;;;;;;33.08;7.30;;;6.90;99.90;;;;;;6195829;22;20019;-83
2022/02/02 03:55:52;;;;;;;27.65;6.15;;;7.20;99.90;;;;;;6270082;22;20020;-82
2022/02/02 03:58:31;;;;;;;30.23;5.95;;;7.20;99.90;;;;;;6248514;22;20016;-82
2022/02/02 04:04:13;;;;;;;28.50;6.25;;;7.20;99.90;;;;;;6248856;22;20431;-81
2022/02/02 04:09:25;;;;;;;30.33;5.80;;;7.20;99.90;;;;;;6248154;22;20026;-82
2022/02/02 04:58:20;;;;;;;19.17;4.55;;;7.00;99.90;;;;;;6245947;22;20047;-77
2022/02/02 05:04:13;;;;;;;18.30;4.22;;;6.90;99.90;;;;;;6246690;22;20019;-80
2022/02/02 05:06:24;;;;;;;22.27;4.65;;;6.90;99.90;;;;;;6264958;22;20024;-81
2022/02/02 05:53:21;;;;;;;23.73;6.18;;;6.70;99.90;;;;;;6270418;22;20024;-81
2022/02/02 05:55:48;;;;;;;24.17;5.53;;;6.70;99.90;;;;;;6270413;22;20015;-81
2022/02/02 05:58:15;;;;;;;28.42;5.10;;;6.80;99.90;;;;;;6219763;22;20015;-83
2022/02/02 06:00:41;;;;;;;21.95;4.80;;;6.80;99.90;;;;;;6244066;22;20020;-82
2022/02/02 06:03:17;;;;;;;30.08;5.55;;;6.70;99.90;;;;;;6270021;22;20034;-81
2022/02/02 06:05:43;;;;;;;27.85;5.38;;;6.70;99.90;;;;;;6244496;22;20026;-81
2022/02/02 06:08:12;;;;;;;21.30;5.15;;;6.80;99.90;;;;;;6193888;22;20095;-81
2022/02/02 06:10:42;;;;;;;23.95;5.25;;;6.70;99.90;;;;;;6270373;22;20015;-81
2022/02/02 06:13:08;;;;;;;23.75;4.88;;;6.70;99.90;;;;;;6195250;22;20024;-82
2022/02/02 06:15:35;;;;;;;21.67;4.75;;;6.70;99.90;;;;;;6244805;22;20415;-81
2022/02/02 06:18:03;;;;;;;26.05;5.82;;;6.70;99.90;;;;;;6244737;22;20031;-81
2022/02/02 06:20:29;;;;;;;25.08;5.57;;;6.70;99.90;;;;;;6244562;22;20089;-81
2022/02/02 06:23:01;;;;;;;31.45;5.03;;;6.70;99.90;;;;;;6223272;22;20060;-80
2022/02/02 06:25:32;;;;;;;23.20;5.40;;;6.70;99.90;;;;;;6247880;22;20026;-82
2022/02/02 06:28:04;;;;;;;22.25;4.85;;;6.70;99.90;;;;;;6247080;22;20092;-82
2022/02/02 06:30:32;;;;;;;24.17;5.10;;;6.60;99.90;;;;;;6273539;22;20022;-80
2022/02/02 06:33:06;;;;;;;27.23;5.65;;;6.60;99.90;;;;;;6247925;22;20026;-81
2022/02/02 06:35:32;;;;;;;27.25;5.55;;;6.60;99.90;;;;;;6247847;22;20450;-81
2022/02/02 06:37:58;;;;;;;24.70;4.70;;;6.60;99.90;;;;;;6273477;22;20034;-81
2022/02/02 06:40:25;;;;;;;20.45;4.13;;;6.60;99.90;;;;;;6247950;22;20022;-81
2022/02/02 06:42:51;;;;;;;28.05;5.70;;;6.50;99.90;;;;;;6246441;22;20044;-81
2022/02/02 06:45:18;;;;;;;24.48;5.35;;;6.60;99.90;;;;;;6246226;22;20019;-82
2022/02/02 06:47:48;;;;;;;24.53;5.70;;;6.50;99.90;;;;;;6197069;22;20019;-82
2022/02/02 06:50:21;;;;;;;22.65;5.65;;;6.60;99.90;;;;;;6243619;22;20038;-81
2022/02/02 06:53:20;;;;;;;26.58;5.75;;;6.60;99.90;;;;;;6246593;22;20023;-82
2022/02/02 07:04:47;;;;;;;31.48;5.13;;;6.60;99.90;;;;;;6268959;22;20030;-82
2022/02/02 07:07:39;;;;;;;25.42;5.38;;;6.60;99.90;;;;;;6269945;22;20019;-81
2022/02/02 07:10:28;;;;;;;21.13;4.50;;;6.60;99.90;;;;;;6241699;22;20442;-81
2022/02/02 07:21:31;;;;;;;23.98;5.32;;;6.60;99.90;;;;;;6248638;22;20432;-82
2022/02/02 07:24:18;;;;;;;25.75;5.70;;;6.60;99.90;;;;;;6137522;22;1404270;-82
2022/02/02 07:29:40;;;;;;;22.20;5.13;;;6.70;99.90;;;;;;6217844;22;20031;-81
2022/02/02 07:32:12;;;;;;;26.58;5.40;;;6.70;99.90;;;;;;6244735;22;20020;-81
2022/02/02 07:34:55;;;;;;;31.05;6.22;;;6.80;99.90;;;;;;6266494;22;20020;-82
2022/02/02 07:37:31;;;;;;;23.52;4.82;;;6.80;99.90;;;;;;6265605;22;20089;-82
2022/02/02 07:40:01;;;;;;;22.98;4.80;;;6.80;99.90;;;;;;6239746;22;20042;-82
2022/02/02 07:42:28;;;;;;;23.52;5.25;;;6.90;99.90;;;;;;6241148;22;20012;-83
2022/02/02 07:45:09;;;;;;;26.60;5.60;;;6.90;99.90;;;;;;6215706;22;20030;-81
2022/02/02 07:47:41;;;;;;;27.20;5.00;;;6.90;99.90;;;;;;6240304;22;20341;-81
2022/02/02 07:50:09;;;;;;;24.48;5.05;;;6.80;99.90;;;;;;6240724;22;20030;-81
2022/02/02 07:52:36;;;;;;;27.77;5.95;;;6.70;99.90;;;;;;6265076;22;20072;-81
2022/02/02 07:55:05;;;;;;;28.27;4.78;;;6.70;99.90;;;;;;6239462;22;20519;-82
2022/02/02 07:57:32;;;;;;;24.77;5.85;;;6.70;99.90;;;;;;6240374;22;20436;-81
2022/02/02 08:00:06;;;;;;;24.85;5.82;;;6.70;99.90;;;;;;6241129;22;20015;-81
2022/02/02 08:05:04;;;;;;;28.20;5.10;;;6.70;99.90;;;;;;6240399;22;20554;-82
2022/02/02 08:07:37;;;;;;;32.17;5.88;;;6.70;99.90;;;;;;6239430;22;20016;-82
2022/02/02 08:10:12;;;;;;;25.67;6.55;;;6.60;99.90;;;;;;6214314;22;20107;-81
2022/02/02 08:12:44;;;;;;;28.20;6.85;;;6.60;99.90;;;;;;6238721;22;20020;-81
2022/02/02 08:15:11;;;;;;;35.53;6.30;;;6.60;99.90;;;;;;6264564;22;20522;-82
2022/02/02 08:17:38;;;;;;;29.60;5.63;;;6.60;99.90;;;;;;6264175;22;20055;-82
2022/02/02 08:20:04;;;;;;;30.33;5.60;;;6.60;99.90;;;;;;6237874;22;20444;-81
2022/02/02 08:22:30;;;;;;;25.42;5.15;;;6.70;99.90;;;;;;6238577;22;20027;-82
2022/02/02 08:25:00;;;;;;;22.42;5.28;;;6.70;99.90;;;;;;6213720;22;20117;-82
2022/02/02 08:27:25;;;;;;;23.58;6.30;;;6.70;99.90;;;;;;6241194;22;20020;-81
2022/02/02 08:29:53;;;;;;;32.88;6.50;;;6.80;99.90;;;;;;6242313;22;20020;-81
2022/02/02 08:32:19;;;;;;;26.50;5.82;;;6.80;99.90;;;;;;6216705;22;20038;-79
2022/02/02 08:34:48;;;;;;;29.25;6.03;;;6.80;99.90;;;;;;6241888;22;20416;-80
2022/02/02 08:37:15;;;;;;;23.37;5.83;;;6.80;99.90;;;;;;6242702;22;20015;-81
2022/02/02 08:42:15;;;;;;;27.25;5.32;;;6.80;99.90;;;;;;6242893;22;20081;-80
2022/02/02 08:44:48;;;;;;;22.30;4.88;;;6.80;99.90;;;;;;6241923;22;20027;-82
2022/02/02 08:47:18;;;;;;;25.70;5.47;;;6.90;99.90;;;;;;6268083;22;20087;-81
2022/02/02 08:49:51;;;;;;;24.02;5.13;;;6.80;99.90;;;;;;6239035;22;20011;-82
2022/02/02 08:52:17;;;;;;;28.75;5.60;;;6.90;99.90;;;;;;6241095;22;20016;-82
2022/02/02 08:54:47;;;;;;;26.67;4.82;;;7.00;99.90;;;;;;6216305;22;20443;-82
2022/02/02 09:00:04;;;;;;;27.90;5.07;;;7.00;99.90;;;;;;6266211;22;20061;-82
2022/02/02 09:02:33;;;;;;;23.77;4.80;;;7.00;99.90;;;;;;6241662;22;20024;-80
2022/02/02 09:07:43;;;;;;;24.30;4.90;;;7.10;99.90;;;;;;6244438;22;20024;-81
2022/02/02 09:31:49;;;;;;;21.40;4.78;;;7.40;99.90;;;;;;6266508;22;20015;-82
2022/02/02 09:34:17;;;;;;;23.75;4.40;;;7.50;99.90;;;;;;6265570;22;20023;-82
2022/02/02 09:36:45;;;;;;;23.08;4.47;;;7.60;99.90;;;;;;6240451;22;20352;-81
2022/02/02 09:39:21;;;;;;;27.65;5.88;;;7.60;99.90;;;;;;6218754;22;20026;-79
2022/02/02 09:42:01;;;;;;;24.60;4.47;;;7.70;99.90;;;;;;6268074;22;20018;-81
2022/02/02 09:44:36;;;;;;;21.03;4.73;;;7.80;99.90;;;;;;6197411;22;20023;-82
2022/02/02 09:47:09;;;;;;;18.58;3.85;;;7.80;99.90;;;;;;6242769;22;20364;-83
2022/02/02 09:49:48;;;;;;;20.00;4.90;;;7.90;99.90;;;;;;6243750;22;20020;-82
2022/02/02 09:52:17;;;;;;;20.63;4.28;;;7.90;99.90;;;;;;6245007;22;20090;-82
2022/02/02 09:55:00;;;;;;;23.27;5.00;;;8.00;99.90;;;;;;6241494;22;20553;-80
2022/02/02 10:05:28;;;;;;;19.50;3.80;;;7.90;99.90;;;;;;6266739;22;20030;-82
2022/02/02 10:08:47;;;;;;;23.33;4.00;;;8.00;99.90;;;;;;6218285;22;20451;-82
2022/02/02 10:10:58;;;;;;;20.45;3.90;;;7.90;99.90;;;;;;6265165;22;20027;-82
2022/02/02 10:16:17;;;;;;;22.95;3.78;;;8.10;99.90;;;;;;6247031;22;20106;-81
2022/02/02 10:18:43;;;;;;;19.15;4.43;;;8.20;99.90;;;;;;6243866;22;20482;-81
2022/02/02 10:21:09;;;;;;;16.23;4.47;;;8.20;99.90;;;;;;6242591;22;20452;-81
2022/02/02 10:23:36;;;;;;;16.77;3.75;;;8.20;99.90;;;;;;6267488;22;20022;-81
2022/02/02 10:26:20;;;;;;;22.70;3.92;;;8.30;99.90;;;;;;6267557;22;20034;-79
2022/02/02 10:28:48;;;;;;;18.77;3.67;;;8.30;99.90;;;;;;6266622;22;20069;-81
2022/02/02 10:31:14;;;;;;;17.08;4.22;;;8.30;99.90;;;;;;6267369;22;20037;-82
2022/02/02 10:33:41;;;;;;;18.80;3.83;;;8.40;99.90;;;;;;6217637;22;20027;-82
2022/02/02 10:36:15;;;;;;;20.48;4.50;;;8.40;99.90;;;;;;6243542;22;20023;-81
2022/02/02 10:38:49;;;;;;;18.75;3.50;;;8.30;99.90;;;;;;6240354;22;20020;-82
2022/02/02 10:41:32;;;;;;;19.60;4.47;;;8.30;99.90;;;;;;6269493;22;20016;-81
2022/02/02 10:44:03;;;;;;;17.70;3.95;;;8.20;99.90;;;;;;6266599;22;20018;-81
2022/02/02 10:49:24;;;;;;;24.25;4.63;;;8.30;99.90;;;;;;6242288;22;20023;-82
2022/02/02 10:51:59;;;;;;;;;;;8.40;99.90;;;;;;6243429;22;20080;-81
2022/02/02 10:57:46;;;;;;;21.50;3.53;;;8.50;99.90;;;;;;6268097;22;20020;-83
2022/02/02 11:00:26;;;;;;;20.42;4.68;;;8.60;99.90;;;;;;6247686;22;20779;-81
2022/02/02 11:08:22;;;;;;;14.27;3.63;;;8.70;99.90;;;;;;6263284;22;20020;-83
2022/02/02 11:10:50;;;;;;;14.77;2.97;;;8.70;99.90;;;;;;6215616;22;20027;-83
2022/02/02 11:13:17;;;;;;;17.98;4.00;;;8.80;99.90;;;;;;6240205;22;20020;-82
2022/02/02 11:15:51;;;;;;;15.00;3.30;;;8.70;99.90;;;;;;6240850;22;20436;-83
2022/02/02 11:18:35;;;;;;;12.98;2.92;;;8.70;99.90;;;;;;6241424;22;20252;-82
2022/02/02 11:21:09;;;;;;;11.60;2.28;;;8.70;99.90;;;;;;6267694;22;20156;-82
2022/02/02 11:23:49;;;;;;;19.98;3.22;;;8.70;99.90;;;;;;6239750;22;20027;-82
2022/02/02 11:26:42;;;;;;;11.68;2.78;;;8.70;99.90;;;;;;6266280;22;20058;-83
2022/02/02 11:29:09;;;;;;;18.33;3.72;;;8.70;99.90;;;;;;6240417;22;20026;-83
2022/02/02 11:31:54;;;;;;;15.15;2.65;;;8.70;99.90;;;;;;6240208;22;20027;-82
2022/02/02 11:34:29;;;;;;;12.30;2.65;;;8.80;99.90;;;;;;6243541;22;20063;-82
2022/02/02 11:36:56;;;;;;;17.95;2.90;;;8.80;99.90;;;;;;6215487;22;20055;-82
2022/02/02 11:39:43;;;;;;;14.00;3.10;;;8.80;99.90;;;;;;6261226;22;20019;-82
2022/02/02 11:42:54;;;;;;;12.45;3.50;;;8.80;99.90;;;;;;6239664;22;20042;-81
2022/02/02 11:45:45;;;;;;;13.32;2.70;;;8.90;99.90;;;;;;6243673;22;20028;-82
2022/02/02 11:48:19;;;;;;;16.10;3.08;;;8.80;99.90;;;;;;6243582;22;20467;-82
2022/02/02 11:50:54;;;;;;;15.07;3.35;;;8.80;99.90;;;;;;6267684;22;20039;-82
2022/02/02 11:53:55;;;;;;;15.07;2.90;;;8.80;99.90;;;;;;6268080;22;20030;-82
2022/02/02 11:56:27;;;;;;;14.68;3.35;;;8.90;99.90;;;;;;6268497;22;20200;-81
2022/02/02 11:58:57;;;;;;;14.00;2.30;;;8.90;99.90;;;;;;6197960;22;20019;-82
2022/02/02 12:01:42;;;;;;;14.50;2.58;;;8.90;99.90;;;;;;6267472;22;20016;-81
2022/02/02 12:04:43;;;;;;;13.52;2.78;;;8.90;99.90;;;;;;6218689;22;20023;-83
2022/02/02 12:07:18;;;;;;;13.40;2.65;;;9.00;99.90;;;;;;6244567;22;20019;-82
2022/02/02 12:09:56;;;;;;;16.92;2.67;;;9.00;99.90;;;;;;6190744;22;20066;-81
2022/02/02 12:19:08;;;;;;;13.15;2.50;;;8.90;99.90;;;;;;6217382;22;20467;-83
2022/02/02 12:49:22;;;;;;;12.73;2.72;;;9.00;99.90;;;;;;6273786;22;20069;-84
2022/02/02 13:00:24;;;;;;;10.38;2.10;;;9.40;99.90;;;;;;6227573;22;20027;-82
2022/02/02 13:02:51;;;;;;;13.82;2.50;;;9.40;99.90;;;;;;6271207;22;20023;-84
2022/02/02 13:05:24;;;;;;;12.80;2.28;;;9.40;99.90;;;;;;6270759;22;20080;-83
2022/02/02 13:07:53;;;;;;;16.25;2.45;;;9.40;99.90;;;;;;6244986;22;20094;-83
2022/02/02 13:10:23;;;;;;;14.75;3.83;;;9.40;99.90;;;;;;6270954;22;20019;-83
2022/02/02 13:17:56;;;;;;;11.82;3.25;;;9.30;99.90;;;;;;6274179;22;20819;-82
2022/02/02 13:23:36;;;;;;;12.93;2.33;;;9.40;99.90;;;;;;6267877;22;20415;-83
2022/02/02 13:26:08;;;;;;;13.43;2.95;;;9.40;99.90;;;;;;6244560;22;20070;-83
2022/02/02 13:29:08;;;;;;;12.18;2.42;;;9.30;99.90;;;;;;6243947;22;20019;-84
2022/02/02 13:31:42;;;;;;;11.27;2.70;;;9.40;99.90;;;;;;6269766;22;20027;-84
2022/02/02 13:37:21;;;;;;;16.65;2.88;;;9.30;99.90;;;;;;6270208;22;20022;-83
2022/02/02 13:54:17;;;;;;;18.98;3.58;;;9.40;99.90;;;;;;6268803;22;20052;-84
2022/02/02 13:58:49;;;;;;;14.85;3.10;;;9.50;99.90;;;;;;6264176;22;20058;-83
2022/02/02 14:07:22;;;;;;;16.52;2.92;;;9.50;99.90;;;;;;6241070;22;20081;-83
2022/02/02 14:33:27;;;;;;;18.23;3.75;;;9.50;99.90;;;;;;6245922;22;20349;-82
2022/02/02 14:36:00;;;;;;;18.38;4.22;;;9.50;99.90;;;;;;6218454;22;20023;-82
2022/02/02 14:38:28;;;;;;;16.95;3.08;;;9.50;99.90;;;;;;6241591;22;20020;-82
2022/02/02 14:43:50;;;;;;;13.95;2.75;;;9.60;99.90;;;;;;6216474;22;20020;-83
2022/02/02 14:46:10;;;;;;;18.52;3.83;;;9.60;99.90;;;;;;6266172;22;20102;-83
2022/02/02 14:48:44;;;;;;;15.15;2.72;;;9.60;99.90;;;;;;6240847;22;20100;-83
2022/02/02 15:30:50;;;;;;;18.08;4.82;;;9.00;99.90;;;;;;6265081;22;20020;-83
2022/02/02 15:33:23;;;;;;;14.55;3.58;;;9.00;99.90;;;;;;6240440;22;20019;-83
2022/02/02 15:35:57;;;;;;;22.15;4.10;;;8.90;99.90;;;;;;6214813;22;20516;-83
2022/02/02 15:38:28;;;;;;;20.58;4.38;;;8.80;99.90;;;;;;6238857;22;20038;-83
2022/02/02 15:41:00;;;;;;;20.63;4.75;;;8.80;99.90;;;;;;6238163;22;20092;-83
2022/02/02 15:43:35;;;;;;;19.00;3.90;;;8.80;99.90;;;;;;6214859;22;20018;-83
2022/02/02 16:02:30;;;;;;;17.38;3.60;;;8.10;99.90;;;;;;6215068;22;20016;-83
2022/02/02 16:04:57;;;;;;;14.18;2.90;;;8.00;99.90;;;;;;6262574;22;20020;-82
2022/02/02 16:07:28;;;;;;;18.20;3.13;;;7.90;99.90;;;;;;6217865;22;20031;-83
2022/02/02 16:09:59;;;;;;;15.38;3.00;;;7.80;99.90;;;;;;6194068;22;20027;-83
2022/02/02 16:12:32;;;;;;;;;;;7.80;99.90;;;;;;6219295;22;20020;-83
2022/02/02 16:15:13;;;;;;;19.15;2.60;;;7.70;99.90;;;;;;6242936;22;19922;-83
2022/02/02 16:36:45;;;;;;;14.77;2.95;;;7.10;99.90;;;;;;6266150;22;20024;-83
2022/02/02 16:39:12;;;;;;;20.55;3.65;;;7.00;99.90;;;;;;6195166;22;20407;-83
2022/02/02 16:44:23;;;;;;;15.93;4.03;;;7.00;99.90;;;;;;6246100;22;20583;-83
2022/02/02 16:46:49;;;;;;;16.42;3.22;;;6.90;99.90;;;;;;6217546;22;20016;-84
2022/02/02 16:49:15;;;;;;;15.13;2.90;;;6.80;99.90;;;;;;6268272;22;20070;-83
2022/02/02 16:51:42;;;;;;;14.52;2.85;;;6.70;99.90;;;;;;6242352;22;20020;-83
2022/02/02 16:54:15;;;;;;;18.90;3.20;;;6.70;99.90;;;;;;6268011;22;20019;-83
2022/02/02 17:32:35;;;;;;;17.88;4.43;;;5.80;99.90;;;;;;6224281;22;20020;-82
2022/02/02 17:35:10;;;;;;;17.88;4.22;;;5.80;99.90;;;;;;6247598;22;20510;-83
2022/02/02 17:37:53;;;;;;;15.77;4.43;;;5.80;99.90;;;;;;6219793;22;20325;-82
2022/02/02 17:40:35;;;;;;;18.67;3.25;;;5.70;99.90;;;;;;6237874;22;20015;-82
2022/02/02 17:43:20;;;;;;;14.50;3.50;;;5.70;99.90;;;;;;6241191;22;20507;-83
2022/02/02 18:20:56;;;;;;;19.92;3.80;;;5.00;99.90;;;;;;6268596;22;20026;-83
2022/02/02 18:23:46;;;;;;;18.15;4.50;;;4.90;99.90;;;;;;6243175;22;20015;-83
2022/02/02 18:55:09;;;;;;;25.98;9.65;;;4.90;99.90;;;;;;6268610;22;20023;-82
2022/02/02 20:12:39;;;;;;;22.70;7.50;;;5.20;99.90;;;;;;6242622;22;20024;-83
2022/02/02 20:15:06;;;;;;;25.80;7.63;;;5.30;99.90;;;;;;6213812;22;20019;-82
2022/02/02 20:17:34;;;;;;;23.58;8.32;;;5.30;99.90;;;;;;6239151;22;20369;-83
2022/02/02 20:20:19;;;;;;;23.87;8.27;;;5.30;99.90;;;;;;6236906;22;20320;-82
2022/02/02 20:22:45;;;;;;;24.45;7.75;;;5.40;99.90;;;;;;6241375;22;20115;-82
2022/02/02 20:25:13;;;;;;;21.70;6.80;;;5.40;99.90;;;;;;6214273;22;20062;-82
2022/02/02 20:27:39;;;;;;;24.10;7.50;;;5.50;99.90;;;;;;6237542;22;20023;-82
2022/02/02 20:30:09;;;;;;;26.23;7.93;;;5.50;99.90;;;;;;6264664;22;20512;-82
2022/02/02 20:32:35;;;;;;;26.40;7.40;;;5.60;99.90;;;;;;6239625;22;20359;-82
2022/02/02 20:35:01;;;;;;;23.52;7.10;;;5.60;99.90;;;;;;6237626;22;20022;-82
2022/02/02 20:37:28;;;;;;;22.33;7.05;;;5.60;99.90;;;;;;6238474;22;20016;-82
2022/02/02 20:42:32;;;;;;;26.92;7.47;;;5.70;99.90;;;;;;6266444;22;20054;-83
2022/02/02 21:04:21;;;;;;;34.60;9.85;;;6.10;99.90;;;;;;6218580;22;20483;-83
2022/02/02 21:13:41;;;;;;;32.08;10.18;;;6.20;99.90;;;;;;6240845;22;20024;-83
2022/02/02 21:14:51;;;;;;;29.33;9.80;;;6.20;99.90;;;;;;6244224;22;20026;-83
2022/02/02 21:17:22;;;;;;;34.53;11.18;;;6.20;99.90;;;;;;6238481;22;20020;-82
2022/02/02 21:19:59;;;;;;;40.78;12.98;;;6.10;99.90;;;;;;6214904;22;20034;-82
2022/02/02 21:22:27;;;;;;;43.55;13.80;;;6.10;99.90;;;;;;6269805;22;20455;-83
2022/02/02 21:25:13;;;;;;;40.45;13.80;;;6.10;99.90;;;;;;6220266;22;20412;-82
2022/02/02 21:27:39;;;;;;;52.53;16.00;;;6.10;99.90;;;;;;6250351;22;20015;-83
2022/02/02 21:30:07;;;;;;;41.17;16.20;;;6.10;99.90;;;;;;6246204;22;20011;-83
2022/02/02 21:32:34;;;;;;;50.75;18.45;;;6.10;99.90;;;;;;6246160;22;20030;-81
2022/02/02 21:35:05;;;;;;;40.95;16.00;;;6.20;99.90;;;;;;6271317;22;20098;-82
2022/02/02 21:37:35;;;;;;;66.60;23.58;;;6.20;99.90;;;;;;6245431;22;20088;-82
2022/02/02 21:40:18;;;;;;;54.20;20.42;;;6.30;99.90;;;;;;6242060;22;20042;-82
2022/02/02 21:42:45;;;;;;;50.05;20.17;;;6.20;99.90;;;;;;6268194;22;20086;-82
2022/02/02 21:45:12;;;;;;;62.60;24.23;;;6.20;99.90;;;;;;6215368;22;20019;-82
2022/02/02 21:47:38;;;;;;;73.38;26.42;;;6.30;99.90;;;;;;6245095;22;20016;-82
2022/02/02 21:50:10;;;;;;;67.18;25.30;;;6.30;99.90;;;;;;6244947;22;20317;-82
2022/02/02 21:52:36;;;;;;;124.30;32.22;;;6.40;99.90;;;;;;6245084;22;20015;-82
2022/02/02 21:55:03;;;;;;;62.88;26.15;;;6.40;99.90;;;;;;6243244;22;20023;-81
2022/02/02 21:57:29;;;;;;;71.93;27.98;;;6.50;99.90;;;;;;6245689;22;20106;-81
2022/02/02 21:59:55;;;;;;;70.13;27.00;;;6.60;99.90;;;;;;6220805;22;20011;-81
2022/02/02 22:02:21;;;;;;;60.13;26.02;;;6.60;99.90;;;;;;6245910;22;20553;-81
2022/02/02 22:04:47;;;;;;;59.60;25.42;;;6.60;99.90;;;;;;6219507;22;20027;-81
2022/02/02 22:07:13;;;;;;;57.33;24.40;;;6.70;99.90;;;;;;6217692;22;20566;-81
2022/02/02 22:09:39;;;;;;;59.35;25.92;;;6.70;99.90;;;;;;6216963;22;20012;-82
2022/02/02 22:12:05;;;;;;;64.35;27.33;;;6.70;99.90;;;;;;6217104;22;20317;-82
2022/02/02 22:14:32;;;;;;;63.78;28.08;;;6.80;99.90;;;;;;6242781;22;20054;-81
2022/02/02 22:17:01;;;;;;;69.05;28.48;;;6.80;99.90;;;;;;6268327;22;20051;-82
2022/02/02 22:19:27;;;;;;;67.28;28.90;;;6.80;99.90;;;;;;6244400;22;20015;-81
2022/02/02 22:21:53;;;;;;;74.68;29.52;;;6.80;99.90;;;;;;6242857;22;20781;-81
2022/02/02 22:24:19;;;;;;;80.00;31.60;;;6.90;99.90;;;;;;6217180;22;20023;-81
2022/02/02 22:26:45;;;;;;;71.28;31.80;;;6.90;99.90;;;;;;6243196;22;20015;-81
2022/02/02 22:29:12;;;;;;;62.35;30.33;;;6.90;99.90;;;;;;6242706;22;20102;-81
2022/02/02 22:31:37;;;;;;;73.88;31.45;;;7.00;99.90;;;;;;6269299;22;20085;-81
2022/02/02 22:34:03;;;;;;;67.43;30.95;;;7.00;99.90;;;;;;6246181;22;20015;-80
2022/02/02 22:36:30;;;;;;;76.10;33.75;;;7.00;99.90;;;;;;6246724;22;20042;-80
2022/02/02 22:38:59;;;;;;;77.82;32.65;;;7.20;99.90;;;;;;6247017;22;20465;-81
2022/02/02 22:41:24;;;;;;;80.10;34.22;;;7.10;99.90;;;;;;6245349;22;20023;-80
2022/02/02 22:43:53;;;;;;;67.50;33.42;;;7.10;99.90;;;;;;6270303;22;20356;-79
2022/02/02 22:46:25;;;;;;;74.45;34.88;;;7.10;99.90;;;;;;6247953;22;20418;-80
2022/02/02 22:48:51;;;;;;;73.28;33.92;;;7.20;99.90;;;;;;6222125;22;20019;-80
2022/02/02 22:51:16;;;;;;;63.90;31.92;;;7.20;99.90;;;;;;6273971;22;20187;-80
2022/02/02 22:53:43;;;;;;;75.70;33.85;;;7.20;99.90;;;;;;6221617;22;20021;-80
2022/02/02 22:56:09;;;;;;;74.78;34.03;;;7.20;99.90;;;;;;6222449;22;20197;-80
2022/02/02 22:58:35;;;;;;;70.95;34.67;;;7.20;99.90;;;;;;6223634;22;20493;-80
2022/02/02 23:01:01;;;;;;;86.95;36.33;;;7.20;99.90;;;;;;6223474;22;20015;-80
2022/02/02 23:03:28;;;;;;;80.80;36.05;;;7.20;99.90;;;;;;6274778;22;20019;-80
2022/02/02 23:05:58;;;;;;;74.70;35.67;;;7.20;99.90;;;;;;6248897;22;20015;-79
2022/02/02 23:08:27;;;;;;;84.20;35.88;;;7.30;99.90;;;;;;6246881;22;20027;-81
2022/02/02 23:10:54;;;;;;;86.80;35.67;;;7.30;99.90;;;;;;6221936;22;20015;-81
2022/02/02 23:13:20;;;;;;;96.85;37.85;;;7.30;99.90;;;;;;6272733;22;20475;-84
2022/02/02 23:18:18;;;;;;;112.35;42.05;;;7.30;99.90;;;;;;6274116;22;20019;-81
2022/02/02 23:20:49;;;;;;;128.18;43.65;;;7.40;99.90;;;;;;6250353;22;20019;-81
2022/02/02 23:23:20;;;;;;;131.20;45.78;;;7.40;99.90;;;;;;6244442;22;20020;-80
2022/02/02 23:25:51;;;;;;;115.72;45.58;;;7.30;99.90;;;;;;6244184;22;20020;-80
2022/02/02 23:28:19;;;;;;;;;;;7.40;99.90;;;;;;6245366;22;20062;-80
2022/02/02 23:30:46;;;;;;;164.25;50.58;;;7.40;99.90;;;;;;6244945;22;19951;-80
2022/02/02 23:33:12;;;;;;;156.05;50.72;;;7.40;99.90;;;;;;6219527;22;20458;-80
2022/02/02 23:35:40;;;;;;;177.48;52.70;;;7.40;99.90;;;;;;6244157;22;20027;-80
2022/02/02 23:38:07;;;;;;;162.68;53.38;;;7.50;99.90;;;;;;6268778;22;20024;-80
2022/02/02 23:41:01;;;;;;;131.32;49.38;;;7.50;99.90;;;;;;6243782;22;20022;-80
2022/02/02 23:43:21;;;;;;;151.38;49.50;;;7.60;99.90;;;;;;6268697;22;20031;-81
2022/02/02 23:45:54;;;;;;;148.65;49.97;;;7.60;99.90;;;;;;6269455;22;20016;-80
2022/02/02 23:48:31;;;;;;;157.27;52.25;;;7.70;99.90;;;;;;6243355;22;20118;-80
2022/02/02 23:51:06;;;;;;;191.02;55.58;;;7.70;99.90;;;;;;6269752;22;20020;-80
2022/02/02 23:53:36;;;;;;;152.95;51.05;;;7.70;99.90;;;;;;6220284;22;20012;-80
2022/02/02 23:56:15;;;;;;;186.45;53.38;;;7.80;99.90;;;;;;6268803;22;20096;-80
2022/02/02 23:58:48;;;;;;;185.48;52.80;;;7.80;99.90;;;;;;6269436;22;20015;-80
